sensor_id;sensor_type;location;lat;lon;timestamp;P1;durP1;ratioP1;P2;durP2;ratioP2
22697;SDS011;11516;51.612;7.510;2022-07-31T00:01:35;2.57;;;1.77;;
22697;SDS011;11516;51.612;7.510;2022-07-31T00:04:00;5.20;;;2.03;;
22697;SDS011;11516;51.612;7.510;2022-07-31T00:06:26;2.50;;;1.60;;
22697;SDS011;11516;51.612;7.510;2022-07-31T00:08:52;2.20;;;1.67;;
22697;SDS011;11516;51.612;7.510;2022-07-31T00:11:18;3.43;;;2.00;;
22697;SDS011;11516;51.612;7.510;2022-07-31T00:13:43;3.20;;;1.80;;
22697;SDS011;11516;51.612;7.510;2022-07-31T00:16:09;2.15;;;1.58;;
22697;SDS011;11516;51.612;7.510;2022-07-31T00:18:34;2.35;;;1.80;;
22697;SDS011;11516;51.612;7.510;2022-07-31T00:21:01;1.70;;;1.60;;
22697;SDS011;11516;51.612;7.510;2022-07-31T00:23:27;2.90;;;1.67;;
22697;SDS011;11516;51.612;7.510;2022-07-31T00:25:53;3.17;;;1.90;;
22697;SDS011;11516;51.612;7.510;2022-07-31T00:28:19;2.43;;;1.87;;
22697;SDS011;11516;51.612;7.510;2022-07-31T00:30:44;2.40;;;1.53;;
22697;SDS011;11516;51.612;7.510;2022-07-31T00:33:10;1.90;;;1.58;;
22697;SDS011;11516;51.612;7.510;2022-07-31T00:35:36;2.77;;;1.77;;
22697;SDS011;11516;51.612;7.510;2022-07-31T00:38:01;1.70;;;1.60;;
22697;SDS011;11516;51.612;7.510;2022-07-31T00:40:27;3.20;;;1.70;;
22697;SDS011;11516;51.612;7.510;2022-07-31T00:42:53;2.73;;;1.90;;
22697;SDS011;11516;51.612;7.510;2022-07-31T00:45:18;3.20;;;1.80;;
22697;SDS011;11516;51.612;7.510;2022-07-31T00:47:44;2.53;;;1.65;;
22697;SDS011;11516;51.612;7.510;2022-07-31T00:50:09;3.28;;;1.88;;
22697;SDS011;11516;51.612;7.510;2022-07-31T00:52:36;3.63;;;1.92;;
22697;SDS011;11516;51.612;7.510;2022-07-31T00:55:02;2.78;;;1.98;;
22697;SDS011;11516;51.612;7.510;2022-07-31T00:57:28;2.70;;;1.87;;
22697;SDS011;11516;51.612;7.510;2022-07-31T00:59:54;2.95;;;2.20;;
22697;SDS011;11516;51.612;7.510;2022-07-31T01:02:19;2.20;;;1.87;;
22697;SDS011;11516;51.612;7.510;2022-07-31T01:04:45;4.33;;;2.00;;
22697;SDS011;11516;51.612;7.510;2022-07-31T01:07:10;2.13;;;1.83;;
22697;SDS011;11516;51.612;7.510;2022-07-31T01:09:36;3.20;;;2.10;;
22697;SDS011;11516;51.612;7.510;2022-07-31T01:12:05;3.53;;;1.90;;
22697;SDS011;11516;51.612;7.510;2022-07-31T01:14:33;3.13;;;1.83;;
22697;SDS011;11516;51.612;7.510;2022-07-31T01:17:02;2.80;;;1.85;;
22697;SDS011;11516;51.612;7.510;2022-07-31T01:19:44;3.72;;;1.90;;
22697;SDS011;11516;51.612;7.510;2022-07-31T01:27:51;2.67;;;2.10;;
22697;SDS011;11516;51.612;7.510;2022-07-31T01:30:17;4.17;;;2.00;;
22697;SDS011;11516;51.612;7.510;2022-07-31T01:32:46;2.00;;;1.83;;
22697;SDS011;11516;51.612;7.510;2022-07-31T01:35:31;2.95;;;2.03;;
22697;SDS011;11516;51.612;7.510;2022-07-31T01:38:05;3.17;;;2.00;;
22697;SDS011;11516;51.612;7.510;2022-07-31T01:40:37;2.60;;;2.00;;
22697;SDS011;11516;51.612;7.510;2022-07-31T01:43:08;2.67;;;1.92;;
22697;SDS011;11516;51.612;7.510;2022-07-31T01:45:38;3.50;;;1.90;;
22697;SDS011;11516;51.612;7.510;2022-07-31T01:48:07;2.70;;;1.90;;
22697;SDS011;11516;51.612;7.510;2022-07-31T01:50:37;3.42;;;2.17;;
22697;SDS011;11516;51.612;7.510;2022-07-31T01:53:04;6.30;;;2.33;;
22697;SDS011;11516;51.612;7.510;2022-07-31T01:55:32;2.72;;;1.95;;
22697;SDS011;11516;51.612;7.510;2022-07-31T01:57:58;2.33;;;1.80;;
22697;SDS011;11516;51.612;7.510;2022-07-31T02:00:26;3.72;;;2.00;;
22697;SDS011;11516;51.612;7.510;2022-07-31T02:02:52;3.65;;;2.00;;
22697;SDS011;11516;51.612;7.510;2022-07-31T02:05:19;3.03;;;2.07;;
22697;SDS011;11516;51.612;7.510;2022-07-31T02:07:46;2.95;;;2.25;;
22697;SDS011;11516;51.612;7.510;2022-07-31T02:10:13;2.33;;;2.13;;
22697;SDS011;11516;51.612;7.510;2022-07-31T02:12:41;3.70;;;2.00;;
22697;SDS011;11516;51.612;7.510;2022-07-31T02:15:08;4.25;;;2.22;;
22697;SDS011;11516;51.612;7.510;2022-07-31T02:17:36;2.95;;;2.10;;
22697;SDS011;11516;51.612;7.510;2022-07-31T02:20:05;3.17;;;2.42;;
22697;SDS011;11516;51.612;7.510;2022-07-31T02:22:33;3.67;;;2.50;;
22697;SDS011;11516;51.612;7.510;2022-07-31T02:24:59;3.03;;;2.00;;
22697;SDS011;11516;51.612;7.510;2022-07-31T02:27:26;3.78;;;2.50;;
22697;SDS011;11516;51.612;7.510;2022-07-31T02:29:54;3.25;;;2.08;;
22697;SDS011;11516;51.612;7.510;2022-07-31T02:32:23;2.97;;;2.30;;
22697;SDS011;11516;51.612;7.510;2022-07-31T02:34:50;2.90;;;2.20;;
22697;SDS011;11516;51.612;7.510;2022-07-31T02:37:19;3.33;;;2.40;;
22697;SDS011;11516;51.612;7.510;2022-07-31T02:39:46;3.38;;;2.47;;
22697;SDS011;11516;51.612;7.510;2022-07-31T02:42:14;3.63;;;2.40;;
22697;SDS011;11516;51.612;7.510;2022-07-31T02:44:41;4.30;;;2.50;;
22697;SDS011;11516;51.612;7.510;2022-07-31T02:47:07;2.78;;;2.40;;
22697;SDS011;11516;51.612;7.510;2022-07-31T02:49:32;4.20;;;2.47;;
22697;SDS011;11516;51.612;7.510;2022-07-31T02:51:58;3.63;;;2.57;;
22697;SDS011;11516;51.612;7.510;2022-07-31T02:54:24;3.50;;;2.50;;
22697;SDS011;11516;51.612;7.510;2022-07-31T02:56:51;3.63;;;2.67;;
22697;SDS011;11516;51.612;7.510;2022-07-31T02:59:17;3.55;;;2.80;;
22697;SDS011;11516;51.612;7.510;2022-07-31T03:01:43;5.60;;;2.67;;
22697;SDS011;11516;51.612;7.510;2022-07-31T03:04:09;3.23;;;2.70;;
22697;SDS011;11516;51.612;7.510;2022-07-31T03:06:35;3.35;;;2.60;;
22697;SDS011;11516;51.612;7.510;2022-07-31T03:09:00;3.92;;;2.78;;
22697;SDS011;11516;51.612;7.510;2022-07-31T03:11:26;3.67;;;2.70;;
22697;SDS011;11516;51.612;7.510;2022-07-31T03:13:53;3.10;;;2.80;;
22697;SDS011;11516;51.612;7.510;2022-07-31T03:16:19;3.90;;;2.90;;
22697;SDS011;11516;51.612;7.510;2022-07-31T03:18:46;4.13;;;2.97;;
22697;SDS011;11516;51.612;7.510;2022-07-31T03:21:13;5.20;;;2.88;;
22697;SDS011;11516;51.612;7.510;2022-07-31T03:23:39;3.75;;;2.65;;
22697;SDS011;11516;51.612;7.510;2022-07-31T03:26:05;3.70;;;2.80;;
22697;SDS011;11516;51.612;7.510;2022-07-31T03:28:32;4.07;;;3.10;;
22697;SDS011;11516;51.612;7.510;2022-07-31T03:30:59;3.88;;;2.97;;
22697;SDS011;11516;51.612;7.510;2022-07-31T03:33:25;4.40;;;2.80;;
22697;SDS011;11516;51.612;7.510;2022-07-31T03:35:50;4.43;;;2.73;;
22697;SDS011;11516;51.612;7.510;2022-07-31T03:38:17;4.10;;;2.70;;
22697;SDS011;11516;51.612;7.510;2022-07-31T03:40:43;2.77;;;2.40;;
22697;SDS011;11516;51.612;7.510;2022-07-31T03:43:08;3.55;;;2.88;;
22697;SDS011;11516;51.612;7.510;2022-07-31T03:45:35;3.45;;;2.92;;
22697;SDS011;11516;51.612;7.510;2022-07-31T03:48:02;4.80;;;2.77;;
22697;SDS011;11516;51.612;7.510;2022-07-31T03:50:28;4.00;;;2.83;;
22697;SDS011;11516;51.612;7.510;2022-07-31T03:52:54;3.50;;;2.50;;
22697;SDS011;11516;51.612;7.510;2022-07-31T03:55:21;3.47;;;2.90;;
22697;SDS011;11516;51.612;7.510;2022-07-31T03:57:46;4.85;;;2.88;;
22697;SDS011;11516;51.612;7.510;2022-07-31T04:00:13;6.60;;;2.77;;
22697;SDS011;11516;51.612;7.510;2022-07-31T04:02:40;3.85;;;2.65;;
22697;SDS011;11516;51.612;7.510;2022-07-31T04:05:06;3.87;;;2.80;;
22697;SDS011;11516;51.612;7.510;2022-07-31T04:07:32;3.20;;;2.67;;
22697;SDS011;11516;51.612;7.510;2022-07-31T04:09:57;4.03;;;2.60;;
22697;SDS011;11516;51.612;7.510;2022-07-31T04:12:23;4.80;;;2.90;;
22697;SDS011;11516;51.612;7.510;2022-07-31T04:14:48;2.87;;;2.67;;
22697;SDS011;11516;51.612;7.510;2022-07-31T04:17:14;4.10;;;2.83;;
22697;SDS011;11516;51.612;7.510;2022-07-31T04:19:39;3.00;;;2.70;;
22697;SDS011;11516;51.612;7.510;2022-07-31T04:22:05;3.87;;;2.90;;
22697;SDS011;11516;51.612;7.510;2022-07-31T04:24:31;3.25;;;2.75;;
22697;SDS011;11516;51.612;7.510;2022-07-31T04:26:57;4.80;;;3.25;;
22697;SDS011;11516;51.612;7.510;2022-07-31T04:29:23;5.25;;;3.10;;
22697;SDS011;11516;51.612;7.510;2022-07-31T04:31:48;5.22;;;2.83;;
22697;SDS011;11516;51.612;7.510;2022-07-31T04:34:14;5.30;;;3.30;;
22697;SDS011;11516;51.612;7.510;2022-07-31T04:36:40;4.27;;;2.77;;
22697;SDS011;11516;51.612;7.510;2022-07-31T04:39:05;5.72;;;3.28;;
22697;SDS011;11516;51.612;7.510;2022-07-31T04:41:31;5.45;;;3.53;;
22697;SDS011;11516;51.612;7.510;2022-07-31T04:43:57;6.45;;;3.65;;
22697;SDS011;11516;51.612;7.510;2022-07-31T04:46:23;6.30;;;3.50;;
22697;SDS011;11516;51.612;7.510;2022-07-31T04:48:49;4.70;;;3.58;;
22697;SDS011;11516;51.612;7.510;2022-07-31T04:51:19;4.25;;;3.30;;
22697;SDS011;11516;51.612;7.510;2022-07-31T04:53:46;4.93;;;3.63;;
22697;SDS011;11516;51.612;7.510;2022-07-31T04:56:12;4.18;;;3.00;;
22697;SDS011;11516;51.612;7.510;2022-07-31T04:58:57;4.28;;;3.10;;
22697;SDS011;11516;51.612;7.510;2022-07-31T05:01:24;4.40;;;3.05;;
22697;SDS011;11516;51.612;7.510;2022-07-31T05:03:49;4.60;;;2.83;;
22697;SDS011;11516;51.612;7.510;2022-07-31T05:06:15;3.87;;;3.10;;
22697;SDS011;11516;51.612;7.510;2022-07-31T05:08:40;4.70;;;2.90;;
22697;SDS011;11516;51.612;7.510;2022-07-31T05:11:06;3.77;;;2.70;;
22697;SDS011;11516;51.612;7.510;2022-07-31T05:13:48;4.63;;;3.00;;
22697;SDS011;11516;51.612;7.510;2022-07-31T05:16:15;3.45;;;2.72;;
22697;SDS011;11516;51.612;7.510;2022-07-31T05:18:40;4.13;;;2.70;;
22697;SDS011;11516;51.612;7.510;2022-07-31T05:21:06;3.77;;;3.10;;
22697;SDS011;11516;51.612;7.510;2022-07-31T05:23:31;3.88;;;2.95;;
22697;SDS011;11516;51.612;7.510;2022-07-31T05:25:57;3.35;;;2.70;;
22697;SDS011;11516;51.612;7.510;2022-07-31T05:28:22;3.35;;;2.60;;
22697;SDS011;11516;51.612;7.510;2022-07-31T05:30:48;3.75;;;2.60;;
22697;SDS011;11516;51.612;7.510;2022-07-31T05:33:13;5.85;;;2.80;;
22697;SDS011;11516;51.612;7.510;2022-07-31T05:35:39;3.10;;;2.58;;
22697;SDS011;11516;51.612;7.510;2022-07-31T05:38:04;3.88;;;2.83;;
22697;SDS011;11516;51.612;7.510;2022-07-31T05:40:30;3.95;;;3.10;;
22697;SDS011;11516;51.612;7.510;2022-07-31T05:42:55;3.43;;;2.77;;
22697;SDS011;11516;51.612;7.510;2022-07-31T05:45:21;4.70;;;2.90;;
22697;SDS011;11516;51.612;7.510;2022-07-31T05:47:46;3.33;;;2.70;;
22697;SDS011;11516;51.612;7.510;2022-07-31T05:50:12;6.30;;;3.00;;
22697;SDS011;11516;51.612;7.510;2022-07-31T05:52:38;4.88;;;2.88;;
22697;SDS011;11516;51.612;7.510;2022-07-31T05:55:04;4.27;;;2.70;;
22697;SDS011;11516;51.612;7.510;2022-07-31T05:57:30;4.07;;;2.70;;
22697;SDS011;11516;51.612;7.510;2022-07-31T05:59:55;3.73;;;2.67;;
22697;SDS011;11516;51.612;7.510;2022-07-31T06:02:21;3.30;;;2.80;;
22697;SDS011;11516;51.612;7.510;2022-07-31T06:04:46;4.10;;;3.03;;
22697;SDS011;11516;51.612;7.510;2022-07-31T06:07:12;4.30;;;2.93;;
22697;SDS011;11516;51.612;7.510;2022-07-31T06:09:37;4.90;;;2.60;;
22697;SDS011;11516;51.612;7.510;2022-07-31T06:12:03;3.30;;;2.60;;
22697;SDS011;11516;51.612;7.510;2022-07-31T06:14:29;3.20;;;2.40;;
22697;SDS011;11516;51.612;7.510;2022-07-31T06:16:54;4.70;;;2.80;;
22697;SDS011;11516;51.612;7.510;2022-07-31T06:19:20;4.27;;;2.70;;
22697;SDS011;11516;51.612;7.510;2022-07-31T06:21:45;4.50;;;2.90;;
22697;SDS011;11516;51.612;7.510;2022-07-31T06:24:11;4.00;;;2.70;;
22697;SDS011;11516;51.612;7.510;2022-07-31T06:26:36;3.10;;;2.40;;
22697;SDS011;11516;51.612;7.510;2022-07-31T06:29:02;4.33;;;2.83;;
22697;SDS011;11516;51.612;7.510;2022-07-31T06:31:28;3.53;;;2.70;;
22697;SDS011;11516;51.612;7.510;2022-07-31T06:33:53;5.20;;;3.00;;
22697;SDS011;11516;51.612;7.510;2022-07-31T06:36:19;3.30;;;2.70;;
22697;SDS011;11516;51.612;7.510;2022-07-31T06:38:44;3.37;;;2.50;;
22697;SDS011;11516;51.612;7.510;2022-07-31T06:41:10;4.20;;;2.40;;
22697;SDS011;11516;51.612;7.510;2022-07-31T06:43:55;5.10;;;2.70;;
22697;SDS011;11516;51.612;7.510;2022-07-31T06:46:21;4.90;;;2.43;;
22697;SDS011;11516;51.612;7.510;2022-07-31T06:48:46;3.27;;;2.50;;
22697;SDS011;11516;51.612;7.510;2022-07-31T06:51:12;4.93;;;3.20;;
22697;SDS011;11516;51.612;7.510;2022-07-31T06:53:37;3.35;;;2.75;;
22697;SDS011;11516;51.612;7.510;2022-07-31T06:56:03;5.10;;;2.60;;
22697;SDS011;11516;51.612;7.510;2022-07-31T06:58:28;4.67;;;2.70;;
22697;SDS011;11516;51.612;7.510;2022-07-31T07:00:55;2.78;;;2.50;;
22697;SDS011;11516;51.612;7.510;2022-07-31T07:03:21;4.15;;;2.70;;
22697;SDS011;11516;51.612;7.510;2022-07-31T07:05:46;4.17;;;3.00;;
22697;SDS011;11516;51.612;7.510;2022-07-31T07:08:12;4.27;;;3.40;;
22697;SDS011;11516;51.612;7.510;2022-07-31T07:10:38;3.75;;;2.50;;
22697;SDS011;11516;51.612;7.510;2022-07-31T07:13:03;4.50;;;3.10;;
22697;SDS011;11516;51.612;7.510;2022-07-31T07:15:29;4.40;;;2.90;;
22697;SDS011;11516;51.612;7.510;2022-07-31T07:17:54;4.03;;;3.03;;
22697;SDS011;11516;51.612;7.510;2022-07-31T07:20:20;4.10;;;2.57;;
22697;SDS011;11516;51.612;7.510;2022-07-31T07:22:46;4.85;;;3.20;;
22697;SDS011;11516;51.612;7.510;2022-07-31T07:25:11;5.45;;;3.10;;
22697;SDS011;11516;51.612;7.510;2022-07-31T07:27:37;3.92;;;3.00;;
22697;SDS011;11516;51.612;7.510;2022-07-31T07:30:03;4.07;;;3.28;;
22697;SDS011;11516;51.612;7.510;2022-07-31T07:32:31;5.32;;;3.30;;
22697;SDS011;11516;51.612;7.510;2022-07-31T07:34:57;5.37;;;3.30;;
22697;SDS011;11516;51.612;7.510;2022-07-31T07:37:23;6.40;;;3.10;;
22697;SDS011;11516;51.612;7.510;2022-07-31T07:39:49;5.75;;;3.20;;
22697;SDS011;11516;51.612;7.510;2022-07-31T07:42:18;4.63;;;3.20;;
22697;SDS011;11516;51.612;7.510;2022-07-31T07:44:43;4.55;;;3.17;;
22697;SDS011;11516;51.612;7.510;2022-07-31T07:47:12;4.55;;;3.40;;
22697;SDS011;11516;51.612;7.510;2022-07-31T07:49:38;6.28;;;3.38;;
22697;SDS011;11516;51.612;7.510;2022-07-31T07:52:06;7.10;;;3.55;;
22697;SDS011;11516;51.612;7.510;2022-07-31T07:54:35;3.88;;;2.85;;
22697;SDS011;11516;51.612;7.510;2022-07-31T07:57:06;5.93;;;3.63;;
22697;SDS011;11516;51.612;7.510;2022-07-31T07:59:35;6.53;;;3.10;;
22697;SDS011;11516;51.612;7.510;2022-07-31T08:02:08;5.35;;;3.63;;
22697;SDS011;11516;51.612;7.510;2022-07-31T08:04:36;4.47;;;3.33;;
22697;SDS011;11516;51.612;7.510;2022-07-31T08:07:02;6.37;;;3.47;;
22697;SDS011;11516;51.612;7.510;2022-07-31T08:09:28;5.88;;;3.53;;
22697;SDS011;11516;51.612;7.510;2022-07-31T08:11:54;8.77;;;3.67;;
22697;SDS011;11516;51.612;7.510;2022-07-31T08:14:20;6.40;;;3.13;;
22697;SDS011;11516;51.612;7.510;2022-07-31T08:16:46;4.95;;;3.30;;
22697;SDS011;11516;51.612;7.510;2022-07-31T08:19:15;6.85;;;3.35;;
22697;SDS011;11516;51.612;7.510;2022-07-31T08:21:43;5.47;;;3.63;;
22697;SDS011;11516;51.612;7.510;2022-07-31T08:24:09;6.22;;;3.30;;
22697;SDS011;11516;51.612;7.510;2022-07-31T08:26:36;5.28;;;3.38;;
22697;SDS011;11516;51.612;7.510;2022-07-31T08:29:20;4.38;;;3.30;;
22697;SDS011;11516;51.612;7.510;2022-07-31T08:31:49;5.43;;;3.58;;
22697;SDS011;11516;51.612;7.510;2022-07-31T08:34:15;4.63;;;3.50;;
22697;SDS011;11516;51.612;7.510;2022-07-31T08:36:42;5.57;;;3.40;;
22697;SDS011;11516;51.612;7.510;2022-07-31T08:39:08;5.28;;;3.25;;
22697;SDS011;11516;51.612;7.510;2022-07-31T08:41:35;4.65;;;3.42;;
22697;SDS011;11516;51.612;7.510;2022-07-31T08:44:06;4.93;;;3.33;;
22697;SDS011;11516;51.612;7.510;2022-07-31T08:46:32;3.92;;;2.60;;
22697;SDS011;11516;51.612;7.510;2022-07-31T08:49:04;4.30;;;2.88;;
22697;SDS011;11516;51.612;7.510;2022-07-31T08:51:34;4.00;;;2.80;;
22697;SDS011;11516;51.612;7.510;2022-07-31T08:54:06;2.55;;;2.10;;
22697;SDS011;11516;51.612;7.510;2022-07-31T08:56:34;3.33;;;1.80;;
22697;SDS011;11516;51.612;7.510;2022-07-31T08:59:02;2.30;;;1.80;;
22697;SDS011;11516;51.612;7.510;2022-07-31T09:01:28;3.95;;;2.20;;
22697;SDS011;11516;51.612;7.510;2022-07-31T09:03:54;2.75;;;1.98;;
22697;SDS011;11516;51.612;7.510;2022-07-31T09:06:22;2.42;;;2.10;;
22697;SDS011;11516;51.612;7.510;2022-07-31T09:08:47;2.83;;;2.07;;
22697;SDS011;11516;51.612;7.510;2022-07-31T09:11:13;2.47;;;1.85;;
22697;SDS011;11516;51.612;7.510;2022-07-31T09:13:39;2.50;;;1.80;;
22697;SDS011;11516;51.612;7.510;2022-07-31T09:16:16;2.35;;;2.15;;
22697;SDS011;11516;51.612;7.510;2022-07-31T09:18:42;2.08;;;1.60;;
22697;SDS011;11516;51.612;7.510;2022-07-31T09:21:08;2.13;;;1.65;;
22697;SDS011;11516;51.612;7.510;2022-07-31T09:23:42;2.40;;;1.65;;
22697;SDS011;11516;51.612;7.510;2022-07-31T09:26:11;2.00;;;1.80;;
22697;SDS011;11516;51.612;7.510;2022-07-31T09:28:38;1.80;;;1.65;;
22697;SDS011;11516;51.612;7.510;2022-07-31T09:31:06;1.92;;;1.65;;
22697;SDS011;11516;51.612;7.510;2022-07-31T09:33:34;2.35;;;1.60;;
22697;SDS011;11516;51.612;7.510;2022-07-31T09:36:03;2.60;;;1.73;;
22697;SDS011;11516;51.612;7.510;2022-07-31T09:41:06;1.80;;;1.52;;
22697;SDS011;11516;51.612;7.510;2022-07-31T09:43:42;2.72;;;1.60;;
22697;SDS011;11516;51.612;7.510;2022-07-31T09:46:17;2.05;;;1.40;;
22697;SDS011;11516;51.612;7.510;2022-07-31T09:48:48;2.43;;;1.30;;
22697;SDS011;11516;51.612;7.510;2022-07-31T09:51:15;1.38;;;1.20;;
22697;SDS011;11516;51.612;7.510;2022-07-31T09:53:45;2.13;;;1.67;;
22697;SDS011;11516;51.612;7.510;2022-07-31T09:56:15;2.95;;;1.50;;
22697;SDS011;11516;51.612;7.510;2022-07-31T09:58:41;2.05;;;1.50;;
22697;SDS011;11516;51.612;7.510;2022-07-31T10:01:07;1.98;;;1.55;;
22697;SDS011;11516;51.612;7.510;2022-07-31T10:03:38;1.88;;;1.42;;
22697;SDS011;11516;51.612;7.510;2022-07-31T10:06:05;2.10;;;1.50;;
22697;SDS011;11516;51.612;7.510;2022-07-31T10:08:35;1.55;;;1.45;;
22697;SDS011;11516;51.612;7.510;2022-07-31T10:11:02;1.70;;;1.30;;
22697;SDS011;11516;51.612;7.510;2022-07-31T10:13:28;1.60;;;1.33;;
22697;SDS011;11516;51.612;7.510;2022-07-31T10:15:57;1.98;;;1.40;;
22697;SDS011;11516;51.612;7.510;2022-07-31T10:18:25;2.05;;;1.58;;
22697;SDS011;11516;51.612;7.510;2022-07-31T10:20:53;2.35;;;1.50;;
22697;SDS011;11516;51.612;7.510;2022-07-31T10:23:20;2.08;;;1.33;;
22697;SDS011;11516;51.612;7.510;2022-07-31T10:25:49;2.45;;;1.50;;
22697;SDS011;11516;51.612;7.510;2022-07-31T10:28:21;4.50;;;1.83;;
22697;SDS011;11516;51.612;7.510;2022-07-31T10:30:48;1.60;;;1.50;;
22697;SDS011;11516;51.612;7.510;2022-07-31T10:33:14;2.67;;;1.70;;
22697;SDS011;11516;51.612;7.510;2022-07-31T10:35:42;1.80;;;1.67;;
22697;SDS011;11516;51.612;7.510;2022-07-31T10:38:14;1.75;;;1.60;;
22697;SDS011;11516;51.612;7.510;2022-07-31T10:40:48;2.33;;;1.60;;
22697;SDS011;11516;51.612;7.510;2022-07-31T10:43:18;1.70;;;1.60;;
22697;SDS011;11516;51.612;7.510;2022-07-31T10:45:54;3.53;;;1.77;;
22697;SDS011;11516;51.612;7.510;2022-07-31T10:48:20;1.65;;;1.35;;
22697;SDS011;11516;51.612;7.510;2022-07-31T10:50:47;1.45;;;1.35;;
22697;SDS011;11516;51.612;7.510;2022-07-31T10:53:24;2.30;;;1.60;;
22697;SDS011;11516;51.612;7.510;2022-07-31T10:56:04;2.45;;;1.80;;
22697;SDS011;11516;51.612;7.510;2022-07-31T10:58:46;2.10;;;1.50;;
22697;SDS011;11516;51.612;7.510;2022-07-31T11:01:16;2.35;;;1.50;;
22697;SDS011;11516;51.612;7.510;2022-07-31T11:03:45;1.42;;;1.33;;
22697;SDS011;11516;51.612;7.510;2022-07-31T11:06:15;1.50;;;1.30;;
22697;SDS011;11516;51.612;7.510;2022-07-31T11:08:49;1.98;;;1.55;;
22697;SDS011;11516;51.612;7.510;2022-07-31T11:11:16;1.60;;;1.17;;
22697;SDS011;11516;51.612;7.510;2022-07-31T11:16:12;2.80;;;1.35;;
22697;SDS011;11516;51.612;7.510;2022-07-31T11:18:38;2.50;;;1.20;;
22697;SDS011;11516;51.612;7.510;2022-07-31T11:21:04;1.95;;;1.60;;
22697;SDS011;11516;51.612;7.510;2022-07-31T11:23:32;2.35;;;1.60;;
22697;SDS011;11516;51.612;7.510;2022-07-31T11:25:59;2.47;;;1.52;;
22697;SDS011;11516;51.612;7.510;2022-07-31T11:28:27;2.50;;;1.83;;
22697;SDS011;11516;51.612;7.510;2022-07-31T11:31:02;2.27;;;1.50;;
22697;SDS011;11516;51.612;7.510;2022-07-31T11:33:34;1.70;;;1.60;;
22697;SDS011;11516;51.612;7.510;2022-07-31T11:38:32;2.80;;;2.00;;
22697;SDS011;11516;51.612;7.510;2022-07-31T11:41:01;2.92;;;1.90;;
22697;SDS011;11516;51.612;7.510;2022-07-31T11:43:27;2.88;;;1.80;;
22697;SDS011;11516;51.612;7.510;2022-07-31T11:45:54;2.03;;;1.80;;
22697;SDS011;11516;51.612;7.510;2022-07-31T11:48:21;2.60;;;1.73;;
22697;SDS011;11516;51.612;7.510;2022-07-31T11:50:51;3.40;;;2.10;;
22697;SDS011;11516;51.612;7.510;2022-07-31T11:53:20;2.30;;;1.83;;
22697;SDS011;11516;51.612;7.510;2022-07-31T11:55:49;2.30;;;1.80;;
22697;SDS011;11516;51.612;7.510;2022-07-31T11:58:18;2.17;;;1.92;;
22697;SDS011;11516;51.612;7.510;2022-07-31T12:00:47;2.25;;;1.98;;
22697;SDS011;11516;51.612;7.510;2022-07-31T12:03:17;3.60;;;2.30;;
22697;SDS011;11516;51.612;7.510;2022-07-31T12:05:47;2.77;;;1.90;;
22697;SDS011;11516;51.612;7.510;2022-07-31T12:08:16;3.37;;;1.90;;
22697;SDS011;11516;51.612;7.510;2022-07-31T12:10:42;2.92;;;2.03;;
22697;SDS011;11516;51.612;7.510;2022-07-31T12:13:12;2.22;;;2.00;;
22697;SDS011;11516;51.612;7.510;2022-07-31T12:15:39;2.75;;;2.00;;
22697;SDS011;11516;51.612;7.510;2022-07-31T12:18:05;3.42;;;2.55;;
22697;SDS011;11516;51.612;7.510;2022-07-31T12:20:31;4.55;;;2.22;;
22697;SDS011;11516;51.612;7.510;2022-07-31T12:22:58;2.90;;;2.15;;
22697;SDS011;11516;51.612;7.510;2022-07-31T12:25:25;2.80;;;2.40;;
22697;SDS011;11516;51.612;7.510;2022-07-31T12:27:54;3.25;;;2.20;;
22697;SDS011;11516;51.612;7.510;2022-07-31T12:30:20;3.50;;;2.30;;
22697;SDS011;11516;51.612;7.510;2022-07-31T12:32:48;3.10;;;2.20;;
22697;SDS011;11516;51.612;7.510;2022-07-31T12:35:14;2.70;;;2.03;;
22697;SDS011;11516;51.612;7.510;2022-07-31T12:37:44;3.47;;;2.30;;
22697;SDS011;11516;51.612;7.510;2022-07-31T12:40:21;3.80;;;2.83;;
22697;SDS011;11516;51.612;7.510;2022-07-31T12:42:48;3.65;;;2.28;;
22697;SDS011;11516;51.612;7.510;2022-07-31T12:45:13;3.53;;;2.47;;
22697;SDS011;11516;51.612;7.510;2022-07-31T12:47:39;3.90;;;2.67;;
22697;SDS011;11516;51.612;7.510;2022-07-31T12:50:04;3.63;;;2.40;;
22697;SDS011;11516;51.612;7.510;2022-07-31T12:52:30;3.97;;;2.47;;
22697;SDS011;11516;51.612;7.510;2022-07-31T12:54:58;3.45;;;2.60;;
22697;SDS011;11516;51.612;7.510;2022-07-31T12:57:27;2.90;;;2.40;;
22697;SDS011;11516;51.612;7.510;2022-07-31T12:59:53;2.88;;;2.53;;
22697;SDS011;11516;51.612;7.510;2022-07-31T13:02:19;4.72;;;3.00;;
22697;SDS011;11516;51.612;7.510;2022-07-31T13:04:45;2.40;;;2.20;;
22697;SDS011;11516;51.612;7.510;2022-07-31T13:07:13;3.08;;;2.30;;
22697;SDS011;11516;51.612;7.510;2022-07-31T13:09:39;2.80;;;2.50;;
22697;SDS011;11516;51.612;7.510;2022-07-31T13:12:09;4.05;;;2.90;;
22697;SDS011;11516;51.612;7.510;2022-07-31T13:14:38;3.90;;;2.38;;
22697;SDS011;11516;51.612;7.510;2022-07-31T13:17:06;2.88;;;2.35;;
22697;SDS011;11516;51.612;7.510;2022-07-31T13:19:32;3.90;;;2.67;;
22697;SDS011;11516;51.612;7.510;2022-07-31T13:21:58;4.00;;;2.60;;
22697;SDS011;11516;51.612;7.510;2022-07-31T13:24:23;3.97;;;2.60;;
22697;SDS011;11516;51.612;7.510;2022-07-31T13:26:49;2.30;;;2.00;;
22697;SDS011;11516;51.612;7.510;2022-07-31T13:29:16;4.37;;;2.50;;
22697;SDS011;11516;51.612;7.510;2022-07-31T13:31:42;3.47;;;2.20;;
22697;SDS011;11516;51.612;7.510;2022-07-31T13:34:08;2.63;;;2.15;;
22697;SDS011;11516;51.612;7.510;2022-07-31T13:36:34;4.32;;;2.55;;
22697;SDS011;11516;51.612;7.510;2022-07-31T13:39:00;3.00;;;2.47;;
22697;SDS011;11516;51.612;7.510;2022-07-31T13:41:26;2.65;;;2.40;;
22697;SDS011;11516;51.612;7.510;2022-07-31T13:43:55;2.35;;;2.10;;
22697;SDS011;11516;51.612;7.510;2022-07-31T13:46:22;3.05;;;2.33;;
22697;SDS011;11516;51.612;7.510;2022-07-31T13:48:50;3.22;;;2.45;;
22697;SDS011;11516;51.612;7.510;2022-07-31T13:51:20;4.32;;;2.50;;
22697;SDS011;11516;51.612;7.510;2022-07-31T13:53:46;2.78;;;2.35;;
22697;SDS011;11516;51.612;7.510;2022-07-31T13:56:16;3.72;;;2.53;;
22697;SDS011;11516;51.612;7.510;2022-07-31T13:58:43;3.28;;;2.40;;
22697;SDS011;11516;51.612;7.510;2022-07-31T14:01:09;2.70;;;2.50;;
22697;SDS011;11516;51.612;7.510;2022-07-31T14:03:34;2.90;;;2.60;;
22697;SDS011;11516;51.612;7.510;2022-07-31T14:06:01;2.97;;;2.50;;
22697;SDS011;11516;51.612;7.510;2022-07-31T14:08:28;3.35;;;2.72;;
22697;SDS011;11516;51.612;7.510;2022-07-31T14:10:53;5.20;;;2.75;;
22697;SDS011;11516;51.612;7.510;2022-07-31T14:13:20;3.90;;;2.80;;
22697;SDS011;11516;51.612;7.510;2022-07-31T14:15:46;2.70;;;2.50;;
22697;SDS011;11516;51.612;7.510;2022-07-31T14:18:12;2.80;;;2.60;;
22697;SDS011;11516;51.612;7.510;2022-07-31T14:20:38;3.72;;;2.85;;
22697;SDS011;11516;51.612;7.510;2022-07-31T14:23:09;4.00;;;2.70;;
22697;SDS011;11516;51.612;7.510;2022-07-31T14:25:36;2.87;;;2.67;;
22697;SDS011;11516;51.612;7.510;2022-07-31T14:28:02;3.10;;;2.80;;
22697;SDS011;11516;51.612;7.510;2022-07-31T14:30:31;3.20;;;2.90;;
22697;SDS011;11516;51.612;7.510;2022-07-31T14:32:58;4.20;;;3.17;;
22697;SDS011;11516;51.612;7.510;2022-07-31T14:35:24;3.83;;;3.00;;
22697;SDS011;11516;51.612;7.510;2022-07-31T14:37:53;4.30;;;3.08;;
22697;SDS011;11516;51.612;7.510;2022-07-31T14:40:21;3.17;;;2.83;;
22697;SDS011;11516;51.612;7.510;2022-07-31T14:42:47;3.35;;;2.88;;
22697;SDS011;11516;51.612;7.510;2022-07-31T14:45:13;3.47;;;2.60;;
22697;SDS011;11516;51.612;7.510;2022-07-31T14:47:39;4.07;;;2.80;;
22697;SDS011;11516;51.612;7.510;2022-07-31T14:50:10;2.97;;;2.73;;
22697;SDS011;11516;51.612;7.510;2022-07-31T14:52:36;2.97;;;2.60;;
22697;SDS011;11516;51.612;7.510;2022-07-31T14:55:02;2.67;;;2.47;;
22697;SDS011;11516;51.612;7.510;2022-07-31T14:57:30;2.63;;;2.43;;
22697;SDS011;11516;51.612;7.510;2022-07-31T14:59:58;3.30;;;2.95;;
22697;SDS011;11516;51.612;7.510;2022-07-31T15:02:25;2.90;;;2.60;;